Time;durP1;ratioP1;P1;durP2;ratioP2;P2;SDS_P1;SDS_P2;PMS_P1;PMS_P2;Temp;Humidity;BMP_temperature;BMP_pressure;BME280_temperature;BME280_humidity;BME280_pressure;Samples;Min_cycle;Max_cycle;Signal;HPM_P1;HPM_P2
2022/10/04 00:01:08;;;;;;;5.40;2.70;;;;;;;;;;105068;1290;22474;-34
2022/10/04 00:03:41;;;;;;;5.20;2.60;;;;;;;;;;105014;1285;22485;-34
2022/10/04 00:06:14;;;;;;;6.40;2.70;;;;;;;;;;104988;1299;24950;-34
2022/10/04 00:08:46;;;;;;;5.30;3.20;;;;;;;;;;104979;1296;22497;-34
2022/10/04 00:11:18;;;;;;;6.00;2.60;;;;;;;;;;104915;1295;22937;-34
2022/10/04 00:13:49;;;;;;;6.40;3.00;;;;;;;;;;104974;1292;22455;-34
2022/10/04 00:16:26;;;;;;;5.90;3.00;;;;;;;;;;105084;1291;22489;-34
2022/10/04 00:19:03;;;;;;;5.30;2.90;;;;;;;;;;105069;1290;22549;-34
2022/10/04 00:21:45;;;;;;;6.20;2.70;;;;;;;;;;105111;1300;22598;-34
2022/10/04 00:24:20;;;;;;;5.90;3.00;;;;;;;;;;105009;1286;22498;-34
2022/10/04 00:27:08;;;;;;;5.50;3.00;;;;;;;;;;104964;1294;24483;-34
2022/10/04 00:29:38;;;;;;;5.70;3.10;;;;;;;;;;104966;1294;22487;-34
2022/10/04 00:32:25;;;;;;;5.60;2.80;;;;;;;;;;105006;1296;22488;-34
2022/10/04 00:34:54;;;;;;;5.30;2.60;;;;;;;;;;105030;1290;22635;-34
2022/10/04 00:37:25;;;;;;;5.80;2.80;;;;;;;;;;105088;1300;22622;-34
2022/10/04 00:40:01;;;;;;;5.00;2.40;;;;;;;;;;105047;1288;22533;-34
2022/10/04 00:42:40;;;;;;;5.40;2.50;;;;;;;;;;105108;1293;22506;-34
2022/10/04 00:45:19;;;;;;;5.00;2.40;;;;;;;;;;104961;1296;22482;-34
2022/10/04 00:48:01;;;;;;;5.10;2.60;;;;;;;;;;104964;1292;24865;-34
2022/10/04 00:50:33;;;;;;;4.40;2.70;;;;;;;;;;104970;1299;22553;-34
2022/10/04 00:53:04;;;;;;;5.30;3.00;;;;;;;;;;104987;1294;22473;-34
2022/10/04 00:55:36;;;;;;;6.50;2.60;;;;;;;;;;105033;1293;25625;-35
2022/10/04 00:58:08;;;;;;;4.40;2.20;;;;;;;;;;105099;1293;25550;-34
2022/10/04 01:00:37;;;;;;;4.60;2.60;;;;;;;;;;105089;1290;24445;-34
2022/10/04 01:03:10;;;;;;;5.70;2.80;;;;;;;;;;105064;1298;22492;-34
2022/10/04 01:05:37;;;;;;;;;;;;;;;;;;104994;1296;22657;-33
2022/10/04 01:08:09;;;;;;;5.50;2.60;;;;;;;;;;104963;1292;22533;-33
2022/10/04 01:10:40;;;;;;;4.60;2.40;;;;;;;;;;104952;1294;22638;-34
2022/10/04 01:13:12;;;;;;;5.00;2.50;;;;;;;;;;104877;1302;22674;-34
2022/10/04 01:15:44;;;;;;;4.30;2.20;;;;;;;;;;105006;1292;22535;-33
2022/10/04 01:18:28;;;;;;;5.00;2.40;;;;;;;;;;105095;1290;26831;-34
2022/10/04 01:20:58;;;;;;;4.70;2.30;;;;;;;;;;105092;1296;24723;-35
2022/10/04 01:23:42;;;;;;;5.00;2.40;;;;;;;;;;105098;1290;22601;-34
2022/10/04 01:26:29;;;;;;;3.90;2.10;;;;;;;;;;104983;1293;22487;-34
2022/10/04 01:28:59;;;;;;;4.40;2.10;;;;;;;;;;104979;1294;23238;-34
2022/10/04 01:31:29;;;;;;;4.70;2.40;;;;;;;;;;104996;1291;22503;-35
2022/10/04 01:33:59;;;;;;;4.20;2.00;;;;;;;;;;104957;1292;22531;-36
2022/10/04 01:36:29;;;;;;;3.80;2.00;;;;;;;;;;105037;1293;25252;-35
2022/10/04 01:38:57;;;;;;;4.30;2.10;;;;;;;;;;105086;1290;22510;-35
2022/10/04 01:41:29;;;;;;;5.00;2.40;;;;;;;;;;105090;1291;22542;-35
2022/10/04 01:44:01;;;;;;;5.10;2.30;;;;;;;;;;105019;1295;22524;-34
2022/10/04 01:46:32;;;;;;;4.50;2.00;;;;;;;;;;104913;1286;22464;-34
2022/10/04 01:49:03;;;;;;;4.70;2.00;;;;;;;;;;104976;1294;24873;-33
2022/10/04 01:51:37;;;;;;;4.50;2.10;;;;;;;;;;104987;1293;25553;-34
2022/10/04 01:54:09;;;;;;;4.90;2.00;;;;;;;;;;104962;1294;24531;-34
2022/10/04 01:56:43;;;;;;;3.80;2.10;;;;;;;;;;105018;1288;25450;-35
2022/10/04 01:59:15;;;;;;;5.00;2.10;;;;;;;;;;105044;1291;22521;-34
2022/10/04 02:01:47;;;;;;;4.20;2.10;;;;;;;;;;105075;1295;23253;-33
2022/10/04 02:04:18;;;;;;;4.80;2.10;;;;;;;;;;105100;1295;22617;-34
2022/10/04 02:06:48;;;;;;;5.70;2.30;;;;;;;;;;104967;1294;22491;-34
2022/10/04 02:09:19;;;;;;;4.40;2.10;;;;;;;;;;105008;1292;22628;-34
2022/10/04 02:11:51;;;;;;;4.90;2.20;;;;;;;;;;104985;1292;22546;-34
2022/10/04 02:14:24;;;;;;;4.30;1.90;;;;;;;;;;105005;1292;22516;-34
2022/10/04 02:16:53;;;;;;;3.70;2.00;;;;;;;;;;105028;1292;22584;-34
2022/10/04 02:19:25;;;;;;;5.00;2.30;;;;;;;;;;105090;1290;22495;-34
2022/10/04 02:21:56;;;;;;;4.50;2.00;;;;;;;;;;105109;1290;22482;-34
2022/10/04 02:24:26;;;;;;;4.30;1.90;;;;;;;;;;105081;1291;22498;-34
2022/10/04 02:26:55;;;;;;;4.20;2.00;;;;;;;;;;104953;1293;25637;-34
2022/10/04 02:29:24;;;;;;;4.50;1.90;;;;;;;;;;104960;1288;22474;-34
2022/10/04 02:34:40;;;;;;;4.50;1.90;;;;;;;;;;105000;1286;22560;-34
2022/10/04 02:37:09;;;;;;;4.40;2.00;;;;;;;;;;105037;1292;22481;-34
2022/10/04 02:39:40;;;;;;;3.80;1.90;;;;;;;;;;105104;1293;22482;-34
2022/10/04 02:42:14;;;;;;;4.20;1.90;;;;;;;;;;105076;1290;22525;-34
2022/10/04 02:44:44;;;;;;;3.80;1.90;;;;;;;;;;105097;1294;22489;-34
2022/10/04 02:47:16;;;;;;;3.80;1.90;;;;;;;;;;104971;1288;24672;-34
2022/10/04 02:49:46;;;;;;;4.10;1.90;;;;;;;;;;104967;1294;24488;-34
2022/10/04 02:52:19;;;;;;;4.40;1.90;;;;;;;;;;104977;1293;22548;-34
2022/10/04 02:54:49;;;;;;;3.90;1.80;;;;;;;;;;104981;1292;24482;-34
2022/10/04 02:57:19;;;;;;;4.10;2.10;;;;;;;;;;105010;1294;22501;-34
2022/10/04 02:59:48;;;;;;;3.90;2.00;;;;;;;;;;105040;1293;39365;-34
2022/10/04 03:02:23;;;;;;;3.60;1.80;;;;;;;;;;105102;1294;22505;-34
2022/10/04 03:04:52;;;;;;;3.70;1.80;;;;;;;;;;105095;1293;22465;-34
2022/10/04 03:07:22;;;;;;;4.90;1.90;;;;;;;;;;105023;1291;22635;-34
2022/10/04 03:09:51;;;;;;;3.80;1.70;;;;;;;;;;104979;1293;22685;-34
2022/10/04 03:12:21;;;;;;;3.60;1.80;;;;;;;;;;104982;1286;24512;-34
2022/10/04 03:14:52;;;;;;;3.50;1.80;;;;;;;;;;104999;1287;22479;-33
2022/10/04 03:17:21;;;;;;;3.30;1.70;;;;;;;;;;104966;1294;22467;-34
2022/10/04 03:19:51;;;;;;;3.80;1.60;;;;;;;;;;105108;1293;22531;-34
2022/10/04 03:22:19;;;;;;;3.30;1.40;;;;;;;;;;105101;1295;23031;-34
2022/10/04 03:24:50;;;;;;;4.50;1.50;;;;;;;;;;105093;1284;26638;-33
2022/10/04 03:27:20;;;;;;;3.40;1.70;;;;;;;;;;105020;1294;23693;-34
2022/10/04 03:29:52;;;;;;;3.40;1.90;;;;;;;;;;104986;1294;22612;-34
2022/10/04 03:32:21;;;;;;;4.70;1.70;;;;;;;;;;104983;1293;24768;-34
2022/10/04 03:34:52;;;;;;;4.20;1.70;;;;;;;;;;105002;1287;24605;-34
2022/10/04 03:37:21;;;;;;;3.40;1.60;;;;;;;;;;104964;1286;22471;-34
2022/10/04 03:39:52;;;;;;;3.70;1.60;;;;;;;;;;105094;1290;22489;-34
2022/10/04 03:42:22;;;;;;;4.10;1.90;;;;;;;;;;105093;1292;24446;-33
2022/10/04 03:44:52;;;;;;;3.40;1.40;;;;;;;;;;105048;1293;24601;-33
2022/10/04 03:47:24;;;;;;;3.70;1.40;;;;;;;;;;105061;1294;22514;-33
2022/10/04 03:49:54;;;;;;;4.30;1.50;;;;;;;;;;104985;1294;22677;-33
2022/10/04 03:52:25;;;;;;;3.60;1.60;;;;;;;;;;104986;1286;25393;-33
2022/10/04 03:54:55;;;;;;;3.80;1.60;;;;;;;;;;104998;1289;24975;-34
2022/10/04 03:57:25;;;;;;;3.30;1.40;;;;;;;;;;104958;1293;24479;-34
2022/10/04 03:59:55;;;;;;;3.00;1.40;;;;;;;;;;105094;1294;24524;-34
2022/10/04 04:02:30;;;;;;;2.80;1.30;;;;;;;;;;105091;1293;26438;-34
2022/10/04 04:05:03;;;;;;;3.40;1.50;;;;;;;;;;105100;1293;25321;-34
2022/10/04 04:07:36;;;;;;;3.70;1.60;;;;;;;;;;105075;1290;22479;-33
2022/10/04 04:10:09;;;;;;;4.20;1.50;;;;;;;;;;105004;1294;22547;-34
2022/10/04 04:12:40;;;;;;;3.40;1.60;;;;;;;;;;104982;1290;22735;-33
2022/10/04 04:15:12;;;;;;;3.50;1.60;;;;;;;;;;105004;1291;22565;-33
2022/10/04 04:17:42;;;;;;;3.80;1.70;;;;;;;;;;104976;1293;22481;-34
2022/10/04 04:20:18;;;;;;;3.20;1.40;;;;;;;;;;105078;1291;26644;-33
2022/10/04 04:22:51;;;;;;;4.50;1.50;;;;;;;;;;105116;1285;22572;-33
2022/10/04 04:25:22;;;;;;;3.40;1.40;;;;;;;;;;105089;1288;22470;-34
2022/10/04 04:27:52;;;;;;;3.70;1.50;;;;;;;;;;105067;1288;22488;-34
2022/10/04 04:30:22;;;;;;;3.10;1.50;;;;;;;;;;104977;1286;22484;-34
2022/10/04 04:32:52;;;;;;;3.70;1.60;;;;;;;;;;104979;1292;25270;-33
2022/10/04 04:35:23;;;;;;;3.60;1.50;;;;;;;;;;104970;1288;23065;-34
2022/10/04 04:38:14;;;;;;;4.00;1.70;;;;;;;;;;105003;1287;22496;-33
2022/10/04 04:40:44;;;;;;;3.80;1.70;;;;;;;;;;105173;1288;23621;-33
2022/10/04 04:43:17;;;;;;;3.90;1.90;;;;;;;;;;105063;1293;22555;-33
2022/10/04 04:45:48;;;;;;;3.60;1.70;;;;;;;;;;105080;1294;24640;-34
2022/10/04 04:48:17;;;;;;;;;;;;;;;;;;105068;1290;24344;-34
2022/10/04 04:50:51;;;;;;;4.50;1.90;;;;;;;;;;104952;1288;22494;-34
2022/10/04 04:53:22;;;;;;;4.20;1.70;;;;;;;;;;104976;1291;22635;-34
2022/10/04 04:55:52;;;;;;;3.80;1.60;;;;;;;;;;104995;1292;25265;-33
2022/10/04 04:58:23;;;;;;;4.10;1.50;;;;;;;;;;104981;1293;22497;-33
2022/10/04 05:00:55;;;;;;;4.30;1.70;;;;;;;;;;105010;1301;22618;-34
2022/10/04 05:03:24;;;;;;;6.30;1.80;;;;;;;;;;105068;1288;22468;-34
2022/10/04 05:05:56;;;;;;;5.90;1.70;;;;;;;;;;105082;1294;22487;-33
2022/10/04 05:08:26;;;;;;;5.20;1.70;;;;;;;;;;105091;1288;22469;-34
2022/10/04 05:11:00;;;;;;;4.60;1.80;;;;;;;;;;104952;1291;22510;-34
2022/10/04 05:13:32;;;;;;;5.50;1.70;;;;;;;;;;104993;1293;22506;-34
2022/10/04 05:16:01;;;;;;;3.50;1.80;;;;;;;;;;105000;1293;22507;-34
2022/10/04 05:18:31;;;;;;;4.70;1.90;;;;;;;;;;104977;1294;24537;-33
2022/10/04 05:21:08;;;;;;;4.10;1.70;;;;;;;;;;105055;1286;22467;-34
2022/10/04 05:23:36;;;;;;;4.10;1.60;;;;;;;;;;105070;1293;22531;-34
2022/10/04 05:26:10;;;;;;;3.20;1.30;;;;;;;;;;105065;1293;22596;-34
2022/10/04 05:28:39;;;;;;;3.50;1.40;;;;;;;;;;105070;1288;22494;-34
2022/10/04 05:31:17;;;;;;;4.30;1.70;;;;;;;;;;104958;1290;24495;-34
2022/10/04 05:33:47;;;;;;;3.60;1.40;;;;;;;;;;105006;1289;22536;-33
2022/10/04 05:36:32;;;;;;;3.90;1.50;;;;;;;;;;104999;1288;22482;-34
2022/10/04 05:39:04;;;;;;;3.60;1.50;;;;;;;;;;104755;1294;22615;-34
2022/10/04 05:41:38;;;;;;;4.00;1.40;;;;;;;;;;105022;1293;24738;-33
2022/10/04 05:44:20;;;;;;;3.60;1.50;;;;;;;;;;105067;1293;22487;-33
2022/10/04 05:46:49;;;;;;;3.80;1.50;;;;;;;;;;105066;1285;23051;-34
2022/10/04 05:49:21;;;;;;;3.20;1.30;;;;;;;;;;105076;1287;22511;-34
2022/10/04 05:51:52;;;;;;;3.90;1.40;;;;;;;;;;104935;1294;24035;-33
2022/10/04 05:54:29;;;;;;;3.70;1.40;;;;;;;;;;104960;1294;25966;-35
2022/10/04 05:57:08;;;;;;;4.20;1.40;;;;;;;;;;104966;1291;24665;-34
2022/10/04 05:59:43;;;;;;;4.50;1.50;;;;;;;;;;104963;1289;26652;-34
2022/10/04 06:02:19;;;;;;;3.80;1.40;;;;;;;;;;104995;1293;22680;-34
2022/10/04 06:04:55;;;;;;;3.00;1.30;;;;;;;;;;105055;1280;22690;-34
2022/10/04 06:07:25;;;;;;;2.80;1.30;;;;;;;;;;105069;1293;22487;-34
2022/10/04 06:10:03;;;;;;;3.20;1.20;;;;;;;;;;105101;1288;22527;-33
2022/10/04 06:12:41;;;;;;;4.10;1.30;;;;;;;;;;104916;1287;22530;-34
2022/10/04 06:15:20;;;;;;;2.90;1.30;;;;;;;;;;104942;1294;22484;-34
2022/10/04 06:18:08;;;;;;;3.20;1.30;;;;;;;;;;104983;1294;25965;-34
2022/10/04 06:20:49;;;;;;;4.10;1.20;;;;;;;;;;104966;1294;22509;-32
2022/10/04 06:23:19;;;;;;;3.00;1.20;;;;;;;;;;105087;1291;22583;-34
2022/10/04 06:25:50;;;;;;;2.60;1.10;;;;;;;;;;105121;1293;22477;-33
2022/10/04 06:28:22;;;;;;;3.20;1.20;;;;;;;;;;105074;1284;25921;-34
2022/10/04 06:31:04;;;;;;;3.10;1.30;;;;;;;;;;105045;1293;25261;-34
2022/10/04 06:33:39;;;;;;;2.60;1.20;;;;;;;;;;104993;1287;22549;-35
2022/10/04 06:36:17;;;;;;;4.00;1.60;;;;;;;;;;104994;1286;22477;-34
2022/10/04 06:39:01;;;;;;;3.40;1.20;;;;;;;;;;105009;1293;25302;-34
2022/10/04 06:41:42;;;;;;;3.70;1.30;;;;;;;;;;104991;1293;25394;-31
2022/10/04 06:44:27;;;;;;;2.80;1.10;;;;;;;;;;105081;1291;22476;-30
2022/10/04 06:47:03;;;;;;;4.30;1.40;;;;;;;;;;105055;1288;25295;-31
2022/10/04 06:49:39;;;;;;;3.40;1.20;;;;;;;;;;105071;1295;22488;-31
2022/10/04 06:52:15;;;;;;;3.30;1.30;;;;;;;;;;104993;1294;22515;-31
2022/10/04 06:54:52;;;;;;;3.20;1.30;;;;;;;;;;104995;1294;24712;-31
2022/10/04 06:57:33;;;;;;;4.10;1.30;;;;;;;;;;104974;1286;22481;-31
2022/10/04 07:00:08;;;;;;;2.70;1.30;;;;;;;;;;104984;1295;22545;-31
2022/10/04 07:02:39;;;;;;;2.70;1.10;;;;;;;;;;104983;1293;22615;-31
2022/10/04 07:05:14;;;;;;;3.70;1.30;;;;;;;;;;105037;1291;23187;-31
2022/10/04 07:07:46;;;;;;;2.80;1.20;;;;;;;;;;105037;1288;22491;-31
2022/10/04 07:10:28;;;;;;;3.20;1.20;;;;;;;;;;105060;1287;22726;-31
2022/10/04 07:13:05;;;;;;;3.50;1.20;;;;;;;;;;104956;1287;24485;-31
2022/10/04 07:15:42;;;;;;;3.10;1.20;;;;;;;;;;105004;1293;22608;-31
2022/10/04 07:18:14;;;;;;;2.90;1.00;;;;;;;;;;105007;1286;25714;-31
2022/10/04 07:20:43;;;;;;;2.60;1.00;;;;;;;;;;105010;1286;22470;-31
2022/10/04 07:23:17;;;;;;;3.10;1.30;;;;;;;;;;105033;1291;22545;-31
2022/10/04 07:25:49;;;;;;;6.80;1.70;;;;;;;;;;105104;1292;25390;-32
2022/10/04 07:31:12;;;;;;;6.40;1.70;;;;;;;;;;105072;1292;25395;-31
2022/10/04 07:33:44;;;;;;;5.30;1.40;;;;;;;;;;104967;1293;22507;-31
2022/10/04 07:36:14;;;;;;;4.20;1.30;;;;;;;;;;104982;1292;25557;-31
2022/10/04 07:38:46;;;;;;;4.80;1.60;;;;;;;;;;104989;1294;22481;-31
2022/10/04 07:41:20;;;;;;;4.60;1.50;;;;;;;;;;104997;1286;22646;-31
2022/10/04 07:43:51;;;;;;;4.90;1.90;;;;;;;;;;105025;1287;22710;-31
2022/10/04 07:46:23;;;;;;;4.60;1.50;;;;;;;;;;105087;1290;22492;-31
2022/10/04 07:48:52;;;;;;;4.70;1.50;;;;;;;;;;105080;1288;22494;-31
2022/10/04 07:51:29;;;;;;;5.30;1.40;;;;;;;;;;105105;1293;22602;-31
2022/10/04 07:54:03;;;;;;;5.20;1.80;;;;;;;;;;104970;1291;22495;-31
2022/10/04 07:56:37;;;;;;;4.40;1.40;;;;;;;;;;104978;1286;22567;-31
2022/10/04 07:59:16;;;;;;;4.10;1.50;;;;;;;;;;104995;1288;22526;-31
2022/10/04 08:01:48;;;;;;;4.80;1.70;;;;;;;;;;105007;1286;22538;-31
2022/10/04 08:04:27;;;;;;;3.90;1.30;;;;;;;;;;105028;1287;22485;-31
2022/10/04 08:06:57;;;;;;;4.30;1.50;;;;;;;;;;105082;1293;22541;-31
2022/10/04 08:09:32;;;;;;;4.00;1.50;;;;;;;;;;105103;1293;23069;-31
2022/10/04 08:12:05;;;;;;;4.20;1.40;;;;;;;;;;105114;1290;22488;-31
2022/10/04 08:14:34;;;;;;;;;;;;;;;;;;105006;1286;22476;-31
2022/10/04 08:17:11;;;;;;;5.00;1.40;;;;;;;;;;105004;1293;22510;-31
2022/10/04 08:19:44;;;;;;;3.40;1.50;;;;;;;;;;104951;1282;24762;-30
2022/10/04 08:22:19;;;;;;;6.40;1.60;;;;;;;;;;105032;1293;22508;-30
2022/10/04 08:24:54;;;;;;;3.60;1.50;;;;;;;;;;105143;1288;22458;-32
2022/10/04 08:27:32;;;;;;;5.00;1.60;;;;;;;;;;105133;1292;22503;-31
2022/10/04 08:30:06;;;;;;;3.80;1.40;;;;;;;;;;105255;1285;22549;-31
2022/10/04 08:32:45;;;;;;;4.50;1.40;;;;;;;;;;105168;1291;22478;-31
2022/10/04 08:35:35;;;;;;;3.00;1.20;;;;;;;;;;105021;1286;25562;-30
2022/10/04 08:38:23;;;;;;;3.20;1.30;;;;;;;;;;105006;1287;22540;-31
2022/10/04 08:41:01;;;;;;;3.20;1.30;;;;;;;;;;105022;1292;22557;-32
2022/10/04 08:43:41;;;;;;;3.30;1.40;;;;;;;;;;105023;1293;22953;-31
2022/10/04 08:46:33;;;;;;;3.40;1.20;;;;;;;;;;105227;1289;22605;-32
2022/10/04 08:49:13;;;;;;;3.30;1.30;;;;;;;;;;105158;1291;22491;-31
2022/10/04 08:52:11;;;;;;;4.30;1.20;;;;;;;;;;105151;1292;22527;-32
2022/10/04 08:54:57;;;;;;;3.90;1.30;;;;;;;;;;105040;1286;23790;-32
2022/10/04 08:57:39;;;;;;;3.20;1.20;;;;;;;;;;104867;1294;22831;-32
2022/10/04 09:00:14;;;;;;;4.60;1.20;;;;;;;;;;105055;1287;22491;-31
2022/10/04 09:03:03;;;;;;;3.80;1.20;;;;;;;;;;105074;1286;22554;-31
2022/10/04 09:05:42;;;;;;;2.60;1.10;;;;;;;;;;105039;1285;22479;-31
2022/10/04 09:08:39;;;;;;;2.60;1.10;;;;;;;;;;105266;1285;24979;-32
2022/10/04 09:11:20;;;;;;;2.50;1.00;;;;;;;;;;105196;1292;22474;-33
2022/10/04 09:13:55;;;;;;;2.50;1.00;;;;;;;;;;105158;1292;24452;-32
2022/10/04 09:16:27;;;;;;;3.20;1.00;;;;;;;;;;105089;1290;24623;-31
2022/10/04 09:19:21;;;;;;;3.20;1.10;;;;;;;;;;105086;1292;22527;-31
2022/10/04 09:22:10;;;;;;;3.20;1.10;;;;;;;;;;104966;1286;22466;-31
2022/10/04 09:24:55;;;;;;;3.10;1.10;;;;;;;;;;105000;1295;22482;-31
2022/10/04 09:27:34;;;;;;;2.80;1.10;;;;;;;;;;105147;1292;23685;-31
2022/10/04 09:30:14;;;;;;;3.20;1.10;;;;;;;;;;105186;1291;22614;-31
2022/10/04 09:32:58;;;;;;;2.90;1.00;;;;;;;;;;105145;1291;22528;-32
2022/10/04 09:35:38;;;;;;;3.40;1.00;;;;;;;;;;105026;1284;23008;-32
2022/10/04 09:38:37;;;;;;;2.70;1.10;;;;;;;;;;105044;1287;26098;-30
2022/10/04 09:41:22;;;;;;;4.20;1.00;;;;;;;;;;104662;1292;22608;-30
2022/10/04 09:44:12;;;;;;;3.00;1.10;;;;;;;;;;105015;1292;22498;-33
2022/10/04 09:46:50;;;;;;;2.40;1.00;;;;;;;;;;105133;1285;24581;-31
2022/10/04 09:49:31;;;;;;;2.60;1.10;;;;;;;;;;105210;1291;25256;-33
2022/10/04 09:52:05;;;;;;;3.00;1.20;;;;;;;;;;105136;1284;22574;-31
2022/10/04 09:54:50;;;;;;;2.20;1.10;;;;;;;;;;105216;1291;24020;-31
2022/10/04 09:57:27;;;;;;;2.90;1.20;;;;;;;;;;104997;1286;27443;-31
2022/10/04 10:00:05;;;;;;;3.60;1.00;;;;;;;;;;105041;1286;24539;-31
2022/10/04 10:02:47;;;;;;;2.20;0.90;;;;;;;;;;105058;1290;22475;-31
2022/10/04 10:05:22;;;;;;;2.80;1.00;;;;;;;;;;105042;1292;22505;-31
2022/10/04 10:07:54;;;;;;;2.80;1.00;;;;;;;;;;104989;1292;29697;-30
2022/10/04 10:13:41;;;;;;;2.40;1.00;;;;;;;;;;104592;1290;22497;-30
2022/10/04 10:16:24;;;;;;;2.70;1.00;;;;;;;;;;104888;1292;22487;-30
2022/10/04 10:19:00;;;;;;;2.70;1.00;;;;;;;;;;104883;1286;22648;-31
2022/10/04 10:21:42;;;;;;;2.10;1.00;;;;;;;;;;104876;1293;25989;-31
2022/10/04 10:24:29;;;;;;;2.70;1.10;;;;;;;;;;104979;1287;22474;-31
2022/10/04 10:27:04;;;;;;;2.90;1.10;;;;;;;;;;105091;1292;25518;-31
2022/10/04 10:29:51;;;;;;;3.00;1.00;;;;;;;;;;104959;1292;23799;-31
2022/10/04 10:32:27;;;;;;;3.90;1.10;;;;;;;;;;105125;1284;22531;-31
2022/10/04 10:35:13;;;;;;;2.70;1.00;;;;;;;;;;105142;1292;22467;-31
2022/10/04 10:37:49;;;;;;;2.80;1.10;;;;;;;;;;104992;1299;22698;-31
2022/10/04 10:40:42;;;;;;;3.00;1.10;;;;;;;;;;105008;1292;22489;-31
2022/10/04 10:43:24;;;;;;;3.60;1.00;;;;;;;;;;105067;1286;22494;-31
2022/10/04 10:46:09;;;;;;;3.20;1.10;;;;;;;;;;105071;1292;22608;-31
2022/10/04 10:48:53;;;;;;;2.30;0.90;;;;;;;;;;105089;1292;26575;-31
2022/10/04 10:51:33;;;;;;;2.50;1.10;;;;;;;;;;105136;1283;22516;-31
2022/10/04 10:54:17;;;;;;;2.40;0.90;;;;;;;;;;105154;1284;22497;-31
2022/10/04 10:56:51;;;;;;;2.70;1.10;;;;;;;;;;105093;1285;22522;-31
2022/10/04 10:59:35;;;;;;;2.00;1.00;;;;;;;;;;105047;1286;40454;-31
2022/10/04 11:02:22;;;;;;;2.80;1.00;;;;;;;;;;105065;1290;22521;-31
2022/10/04 11:04:57;;;;;;;2.30;0.90;;;;;;;;;;105073;1292;22483;-31
2022/10/04 11:07:37;;;;;;;2.10;1.00;;;;;;;;;;105050;1290;24611;-31
2022/10/04 11:10:20;;;;;;;2.70;1.10;;;;;;;;;;105100;1289;22627;-31
2022/10/04 11:12:48;;;;;;;;;;;;;;;;;;105173;1290;22540;-31
2022/10/04 11:15:39;;;;;;;2.50;1.00;;;;;;;;;;105134;1291;24251;-31
2022/10/04 11:18:25;;;;;;;2.20;1.10;;;;;;;;;;105051;1291;22602;-31
2022/10/04 11:21:05;;;;;;;2.60;1.10;;;;;;;;;;105050;1293;22560;-31
2022/10/04 11:23:50;;;;;;;2.70;1.10;;;;;;;;;;105082;1286;22524;-31
2022/10/04 11:26:37;;;;;;;2.20;0.90;;;;;;;;;;105062;1292;22498;-31
2022/10/04 11:29:11;;;;;;;2.60;1.10;;;;;;;;;;105084;1287;22496;-31
2022/10/04 11:31:55;;;;;;;2.50;1.10;;;;;;;;;;105151;1292;22472;-31
2022/10/04 11:34:38;;;;;;;2.80;1.00;;;;;;;;;;105120;1291;24217;-31
2022/10/04 11:37:05;;;;;;;;;;;;;;;;;;105180;1284;22583;-31
2022/10/04 11:39:53;;;;;;;1.70;1.00;;;;;;;;;;105079;1286;22493;-31
2022/10/04 11:42:29;;;;;;;2.70;1.00;;;;;;;;;;105037;1286;24584;-31
2022/10/04 11:45:13;;;;;;;4.70;1.40;;;;;;;;;;105098;1293;22522;-31
2022/10/04 11:47:48;;;;;;;3.30;1.10;;;;;;;;;;105000;1286;22485;-32
2022/10/04 11:50:24;;;;;;;3.10;1.10;;;;;;;;;;105095;1292;23764;-31
2022/10/04 11:53:25;;;;;;;2.80;1.00;;;;;;;;;;105136;1284;22493;-33
2022/10/04 11:56:09;;;;;;;3.70;1.30;;;;;;;;;;105108;1291;23854;-32
2022/10/04 11:58:45;;;;;;;4.00;1.50;;;;;;;;;;105006;1284;22826;-32
2022/10/04 12:01:39;;;;;;;3.00;1.10;;;;;;;;;;105023;1286;25272;-32
2022/10/04 12:04:21;;;;;;;3.40;1.30;;;;;;;;;;104985;1293;22458;-32
2022/10/04 12:07:07;;;;;;;2.70;1.10;;;;;;;;;;105043;1293;22538;-32
2022/10/04 12:09:40;;;;;;;3.20;1.10;;;;;;;;;;105097;1284;22494;-32
2022/10/04 12:12:38;;;;;;;3.20;1.20;;;;;;;;;;105062;1285;22532;-32
2022/10/04 12:15:22;;;;;;;3.10;1.10;;;;;;;;;;105127;1284;22485;-32
2022/10/04 12:17:52;;;;;;;3.80;1.20;;;;;;;;;;105120;1290;22589;-32
2022/10/04 12:20:30;;;;;;;2.50;1.10;;;;;;;;;;104994;1287;24490;-33
2022/10/04 12:23:12;;;;;;;3.20;1.20;;;;;;;;;;105020;1287;22537;-32
2022/10/04 12:25:47;;;;;;;4.20;1.10;;;;;;;;;;104959;1291;22525;-31
2022/10/04 12:28:29;;;;;;;3.10;1.20;;;;;;;;;;105054;1286;22524;-32
2022/10/04 12:31:07;;;;;;;3.30;1.20;;;;;;;;;;105098;1292;23688;-32
2022/10/04 12:33:43;;;;;;;3.60;1.20;;;;;;;;;;105095;1295;22502;-32
2022/10/04 12:36:28;;;;;;;2.60;1.10;;;;;;;;;;105173;1291;22523;-32
2022/10/04 12:39:02;;;;;;;3.20;1.10;;;;;;;;;;105152;1285;22955;-32
2022/10/04 12:41:38;;;;;;;3.60;1.20;;;;;;;;;;104967;1294;22492;-32
2022/10/04 12:44:17;;;;;;;3.00;1.30;;;;;;;;;;105052;1290;22606;-32
2022/10/04 12:46:52;;;;;;;3.50;1.20;;;;;;;;;;105069;1283;22606;-32
2022/10/04 12:49:25;;;;;;;3.70;1.10;;;;;;;;;;105040;1290;22588;-32
2022/10/04 12:51:58;;;;;;;3.40;1.10;;;;;;;;;;105180;1292;22472;-31
2022/10/04 12:54:36;;;;;;;3.50;1.10;;;;;;;;;;105121;1291;22523;-31
2022/10/04 12:57:15;;;;;;;2.60;1.20;;;;;;;;;;105200;1291;22496;-31
2022/10/04 12:59:49;;;;;;;2.20;1.00;;;;;;;;;;105091;1294;24548;-31
2022/10/04 13:02:34;;;;;;;2.90;0.90;;;;;;;;;;105102;1286;25454;-31
2022/10/04 13:05:10;;;;;;;2.60;1.00;;;;;;;;;;105091;1291;22624;-31
2022/10/04 13:07:47;;;;;;;2.80;1.10;;;;;;;;;;104995;1291;25393;-31
2022/10/04 13:10:29;;;;;;;2.90;1.00;;;;;;;;;;105062;1293;22485;-31
2022/10/04 13:13:09;;;;;;;2.90;1.20;;;;;;;;;;105239;1285;24474;-32
2022/10/04 13:15:41;;;;;;;2.40;1.20;;;;;;;;;;105151;1292;22537;-32
2022/10/04 13:18:19;;;;;;;3.50;1.30;;;;;;;;;;105219;1288;22485;-32
2022/10/04 13:20:53;;;;;;;3.20;1.30;;;;;;;;;;104985;1295;24705;-31
2022/10/04 13:23:27;;;;;;;2.80;1.10;;;;;;;;;;105114;1290;22593;-32
2022/10/04 13:26:03;;;;;;;2.20;1.10;;;;;;;;;;105058;1294;24484;-32
2022/10/04 13:28:34;;;;;;;3.00;1.30;;;;;;;;;;105042;1287;22474;-31
2022/10/04 13:31:06;;;;;;;2.80;1.10;;;;;;;;;;105139;1285;23021;-31
2022/10/04 13:33:46;;;;;;;3.10;1.10;;;;;;;;;;105133;1291;23771;-31
2022/10/04 13:36:19;;;;;;;2.70;1.10;;;;;;;;;;105167;1285;22475;-31
2022/10/04 13:38:55;;;;;;;3.00;1.20;;;;;;;;;;105234;1288;22492;-31
2022/10/04 13:41:28;;;;;;;4.20;1.20;;;;;;;;;;105031;1284;22483;-31
2022/10/04 13:44:14;;;;;;;3.00;1.10;;;;;;;;;;105116;1293;22628;-32
2022/10/04 13:46:52;;;;;;;3.10;1.10;;;;;;;;;;105096;1290;22466;-32
2022/10/04 13:49:29;;;;;;;2.80;1.20;;;;;;;;;;105064;1286;22489;-33
2022/10/04 13:57:50;;;;;;;2.80;1.00;;;;;;;;;;105064;1291;22477;-33
2022/10/04 14:00:33;;;;;;;2.70;1.00;;;;;;;;;;105164;1291;22507;-32
2022/10/04 14:03:13;;;;;;;2.80;1.10;;;;;;;;;;105059;1293;28736;-32
2022/10/04 14:05:53;;;;;;;3.00;1.00;;;;;;;;;;104991;1293;24490;-32
2022/10/04 14:08:49;;;;;;;2.90;1.00;;;;;;;;;;105064;1296;22484;-32
2022/10/04 14:11:37;;;;;;;3.60;1.10;;;;;;;;;;105052;1293;22521;-32
2022/10/04 14:14:24;;;;;;;2.90;1.20;;;;;;;;;;105175;1291;22501;-32
2022/10/04 14:17:04;;;;;;;4.70;1.10;;;;;;;;;;105216;1289;25255;-32
2022/10/04 14:19:39;;;;;;;2.30;0.90;;;;;;;;;;105098;1278;24570;-32
2022/10/04 14:22:18;;;;;;;3.20;1.20;;;;;;;;;;105067;1290;24532;-32
2022/10/04 14:25:16;;;;;;;3.10;1.20;;;;;;;;;;105069;1293;24973;-32
2022/10/04 14:27:54;;;;;;;2.50;1.00;;;;;;;;;;104972;1286;22645;-32
2022/10/04 14:30:29;;;;;;;3.40;1.20;;;;;;;;;;105071;1293;26608;-33
2022/10/04 14:33:16;;;;;;;3.50;1.10;;;;;;;;;;105181;1292;24001;-33
2022/10/04 14:35:49;;;;;;;3.30;1.20;;;;;;;;;;105135;1284;22582;-33
2022/10/04 14:38:27;;;;;;;2.90;1.20;;;;;;;;;;105191;1291;22467;-32
2022/10/04 14:41:08;;;;;;;3.00;1.20;;;;;;;;;;105270;1291;22459;-33
2022/10/04 14:43:54;;;;;;;2.60;1.10;;;;;;;;;;104949;1287;22544;-33
2022/10/04 14:46:39;;;;;;;2.80;1.10;;;;;;;;;;105085;1294;22510;-33
2022/10/04 14:49:15;;;;;;;3.40;1.40;;;;;;;;;;105080;1294;22613;-33
2022/10/04 14:51:50;;;;;;;3.00;1.10;;;;;;;;;;105013;1292;22464;-33
2022/10/04 14:54:33;;;;;;;3.10;1.10;;;;;;;;;;104944;1292;24539;-33
2022/10/04 14:57:04;;;;;;;3.20;1.30;;;;;;;;;;104953;1291;22486;-33
2022/10/04 14:59:41;;;;;;;3.50;1.30;;;;;;;;;;104952;1291;24347;-33
2022/10/04 15:02:21;;;;;;;2.80;1.10;;;;;;;;;;106862;1292;22377;-33
2022/10/04 15:05:07;;;;;;;3.00;1.10;;;;;;;;;;105208;1285;22465;-32
2022/10/04 15:07:37;;;;;;;2.80;1.10;;;;;;;;;;104936;1292;22557;-32
2022/10/04 15:10:10;;;;;;;2.70;1.20;;;;;;;;;;105088;1299;22490;-32
2022/10/04 15:12:37;;;;;;;;;;;;;;;;;;105105;1286;22458;-32
2022/10/04 15:15:19;;;;;;;3.60;1.30;;;;;;;;;;105087;1294;22500;-32
2022/10/04 15:17:58;;;;;;;3.10;1.30;;;;;;;;;;105121;1290;22617;-33
2022/10/04 15:20:30;;;;;;;3.20;1.70;;;;;;;;;;105145;1292;24484;-33
2022/10/04 15:23:09;;;;;;;4.60;1.20;;;;;;;;;;105161;1292;24647;-32
2022/10/04 15:25:39;;;;;;;3.50;1.20;;;;;;;;;;105069;1287;24648;-32
2022/10/04 15:28:13;;;;;;;3.10;1.30;;;;;;;;;;105068;1294;25263;-32
2022/10/04 15:30:50;;;;;;;3.40;1.30;;;;;;;;;;105094;1293;24477;-32
2022/10/04 15:33:25;;;;;;;2.80;1.20;;;;;;;;;;105114;1299;22497;-33
2022/10/04 15:36:12;;;;;;;4.40;1.30;;;;;;;;;;105055;1302;24528;-32
2022/10/04 15:38:47;;;;;;;4.60;1.50;;;;;;;;;;105152;1284;22572;-32